createdAt,value
2023-03-13T00:01:19.126Z,2.70
2023-03-13T00:03:46.553Z,2.70
2023-03-13T00:06:14.403Z,2.60
2023-03-13T00:08:41.875Z,2.60
2023-03-13T00:11:11.692Z,2.60
2023-03-13T00:13:39.076Z,2.70
2023-03-13T00:16:13.341Z,2.70
2023-03-13T00:18:49.529Z,2.80
2023-03-13T00:21:18.320Z,2.80
2023-03-13T00:23:46.427Z,2.80
2023-03-13T00:26:18.788Z,2.80
2023-03-13T00:28:46.344Z,2.80
2023-03-13T00:31:25.016Z,2.80
2023-03-13T00:33:57.448Z,2.80
2023-03-13T00:36:30.916Z,2.80
2023-03-13T00:38:58.733Z,2.80
2023-03-13T00:41:29.543Z,2.80
2023-03-13T00:43:57.378Z,2.80
2023-03-13T00:46:28.451Z,2.80
2023-03-13T00:48:56.152Z,2.80
2023-03-13T00:51:26.668Z,2.80
2023-03-13T00:53:54.925Z,2.80
2023-03-13T00:56:22.116Z,2.80
2023-03-13T00:58:50.490Z,2.90
2023-03-13T01:01:34.445Z,2.90
2023-03-13T01:04:09.093Z,2.90
2023-03-13T01:06:40.453Z,2.90
2023-03-13T01:09:08.436Z,2.90
2023-03-13T01:11:38.382Z,2.90
2023-03-13T01:14:15.998Z,2.90
2023-03-13T01:16:43.420Z,2.90
2023-03-13T01:19:15.202Z,3.00
2023-03-13T01:21:44.700Z,2.90
2023-03-13T01:24:12.450Z,3.00
2023-03-13T01:26:39.684Z,3.00
2023-03-13T01:29:06.568Z,2.90
2023-03-13T01:31:35.819Z,2.90
2023-03-13T01:34:05.835Z,2.80
2023-03-13T01:36:35.648Z,2.80
2023-03-13T01:39:02.666Z,2.70
2023-03-13T01:41:30.961Z,2.70
2023-03-13T01:43:58.511Z,2.70
2023-03-13T01:46:30.372Z,2.70
2023-03-13T01:49:02.955Z,2.80
2023-03-13T01:51:34.922Z,2.80
2023-03-13T01:54:11.754Z,2.80
2023-03-13T01:57:04.459Z,2.80
2023-03-13T01:59:48.684Z,2.80
2023-03-13T02:02:16.777Z,2.80
2023-03-13T02:04:50.458Z,2.80
2023-03-13T02:08:01.808Z,2.90
2023-03-13T02:10:31.714Z,2.90
2023-03-13T02:13:02.556Z,2.80
2023-03-13T02:15:31.476Z,2.80
2023-03-13T02:17:58.586Z,2.80
2023-03-13T02:20:25.468Z,2.80
2023-03-13T02:23:13.523Z,2.80
2023-03-13T02:25:48.624Z,2.80
2023-03-13T02:28:28.003Z,2.80
2023-03-13T02:30:58.542Z,2.80
2023-03-13T02:33:32.469Z,2.90
2023-03-13T02:36:03.172Z,2.90
2023-03-13T02:38:34.960Z,3.00
2023-03-13T02:41:04.852Z,3.00
2023-03-13T02:43:38.343Z,3.00
2023-03-13T02:46:15.539Z,3.10
2023-03-13T02:48:46.923Z,3.20
2023-03-13T02:51:41.692Z,3.10
2023-03-13T02:54:18.245Z,3.20
2023-03-13T02:56:51.421Z,3.20
2023-03-13T02:59:18.409Z,3.20
2023-03-13T03:01:45.742Z,3.20
2023-03-13T03:04:12.818Z,3.20
2023-03-13T03:06:39.702Z,3.20
2023-03-13T03:09:06.624Z,3.20
2023-03-13T03:11:33.418Z,3.20
2023-03-13T03:14:00.289Z,3.20
2023-03-13T03:16:27.176Z,3.20
2023-03-13T03:18:54.047Z,3.20
2023-03-13T03:21:21.293Z,3.20
2023-03-13T03:23:48.133Z,3.20
2023-03-13T03:26:14.992Z,3.30
2023-03-13T03:28:42.015Z,3.30
2023-03-13T03:31:12.630Z,3.30
2023-03-13T03:33:40.637Z,3.30
2023-03-13T03:36:13.729Z,3.30
2023-03-13T03:38:41.761Z,3.30
2023-03-13T03:41:10.274Z,3.40
2023-03-13T03:43:37.568Z,3.40
2023-03-13T03:46:04.766Z,3.40
2023-03-13T03:48:32.288Z,3.40
2023-03-13T03:50:59.359Z,3.40
2023-03-13T03:53:26.462Z,3.40
2023-03-13T03:55:53.305Z,3.50
2023-03-13T03:58:20.218Z,3.50
2023-03-13T04:00:48.321Z,3.50
2023-03-13T04:03:16.148Z,3.50
2023-03-13T04:05:43.851Z,3.50
2023-03-13T04:08:10.971Z,3.50
2023-03-13T04:10:37.840Z,3.50
2023-03-13T04:13:04.739Z,3.40
2023-03-13T04:15:31.666Z,3.50
2023-03-13T04:17:58.487Z,3.50
2023-03-13T04:20:25.587Z,3.50
2023-03-13T04:22:53.701Z,3.50
2023-03-13T04:25:20.797Z,3.50
2023-03-13T04:27:47.643Z,3.50
2023-03-13T04:30:16.290Z,3.60
2023-03-13T04:32:44.652Z,3.60
2023-03-13T04:35:11.546Z,3.50
2023-03-13T04:37:38.402Z,3.50
2023-03-13T04:40:07.029Z,3.50
2023-03-13T04:42:33.810Z,3.50
2023-03-13T04:45:00.624Z,3.50
2023-03-13T04:47:27.465Z,3.60
2023-03-13T04:49:54.310Z,3.50
2023-03-13T04:52:21.244Z,3.50
2023-03-13T04:54:48.281Z,3.50
2023-03-13T04:57:19.741Z,3.50
2023-03-13T04:59:46.640Z,3.50
2023-03-13T05:02:13.918Z,3.50
2023-03-13T05:04:43.751Z,3.50
2023-03-13T05:07:10.547Z,3.50
2023-03-13T05:09:37.360Z,3.50
2023-03-13T05:12:04.557Z,3.50
2023-03-13T05:14:31.398Z,3.50
2023-03-13T05:16:58.268Z,3.60
2023-03-13T05:19:25.195Z,3.50
2023-03-13T05:21:52.072Z,3.60
2023-03-13T05:24:18.933Z,3.50
2023-03-13T05:26:45.763Z,3.50
2023-03-13T05:29:12.626Z,3.50
2023-03-13T05:31:39.487Z,3.50
2023-03-13T05:34:06.322Z,3.50
2023-03-13T05:36:33.156Z,3.50
2023-03-13T05:39:00.022Z,3.50
2023-03-13T05:41:26.951Z,3.50
2023-03-13T05:43:53.798Z,3.50
2023-03-13T05:46:20.743Z,3.40
2023-03-13T05:48:47.648Z,3.50
2023-03-13T05:51:14.634Z,3.50
2023-03-13T05:53:41.571Z,3.50
2023-03-13T05:56:11.491Z,3.50
2023-03-13T05:58:38.375Z,3.50
2023-03-13T06:01:14.086Z,3.60
2023-03-13T06:03:41.155Z,3.60
2023-03-13T06:06:08.121Z,3.50
2023-03-13T06:08:37.739Z,3.50
2023-03-13T06:11:07.514Z,3.50
2023-03-13T06:13:34.614Z,3.50
2023-03-13T06:16:01.885Z,3.50
2023-03-13T06:18:28.761Z,3.50
2023-03-13T06:21:01.184Z,3.60
2023-03-13T06:23:28.540Z,3.70
2023-03-13T06:25:56.623Z,3.60
2023-03-13T06:28:23.574Z,3.70
2023-03-13T06:30:50.505Z,3.70
2023-03-13T06:33:17.518Z,3.70
2023-03-13T06:35:55.808Z,3.70
2023-03-13T06:38:25.129Z,3.70
2023-03-13T06:40:52.479Z,3.80
2023-03-13T06:43:19.958Z,3.80
2023-03-13T06:45:47.362Z,3.90
2023-03-13T06:48:14.629Z,3.90
2023-03-13T06:50:42.162Z,4.00
2023-03-13T06:53:19.487Z,4.00
2023-03-13T06:55:47.191Z,4.10
2023-03-13T06:58:28.807Z,4.00
2023-03-13T07:00:59.050Z,4.10
2023-03-13T07:03:26.129Z,4.10
2023-03-13T07:05:58.125Z,4.10
2023-03-13T07:08:25.719Z,4.10
2023-03-13T07:10:53.753Z,4.10
2023-03-13T07:13:21.806Z,4.10
2023-03-13T07:15:49.471Z,4.20
2023-03-13T07:18:16.529Z,4.20
2023-03-13T07:20:44.005Z,4.20
2023-03-13T07:23:10.893Z,4.30
2023-03-13T07:25:37.733Z,4.30
2023-03-13T07:28:04.770Z,4.30
2023-03-13T07:30:31.702Z,4.40
2023-03-13T07:32:59.120Z,4.40
2023-03-13T07:35:26.085Z,4.50
2023-03-13T07:37:52.999Z,4.50
2023-03-13T07:40:20.108Z,4.60
2023-03-13T07:42:46.980Z,4.60
2023-03-13T07:45:13.835Z,4.70
2023-03-13T07:47:40.674Z,4.60
2023-03-13T07:50:08.545Z,4.70
2023-03-13T07:52:35.556Z,4.80
2023-03-13T07:55:02.447Z,4.90
2023-03-13T07:57:29.344Z,4.90
2023-03-13T07:59:56.171Z,4.90
2023-03-13T08:02:23.171Z,5.00
2023-03-13T08:04:53.218Z,5.00
2023-03-13T08:07:20.141Z,5.00
2023-03-13T08:09:47.247Z,5.00
2023-03-13T08:12:14.125Z,5.10
2023-03-13T08:14:40.928Z,5.10
2023-03-13T08:17:07.844Z,5.20
2023-03-13T08:19:34.748Z,5.20
2023-03-13T08:22:02.622Z,5.20
2023-03-13T08:24:29.566Z,5.30
2023-03-13T08:26:56.377Z,5.30
2023-03-13T08:29:23.214Z,5.30
2023-03-13T08:31:54.343Z,5.30
2023-03-13T08:34:21.310Z,5.40
2023-03-13T08:36:48.313Z,5.40
2023-03-13T08:39:18.586Z,5.40
2023-03-13T08:41:48.995Z,5.50
2023-03-13T08:44:20.033Z,5.40
2023-03-13T08:46:49.134Z,5.50
2023-03-13T08:49:17.575Z,5.50
2023-03-13T08:51:44.583Z,5.50
2023-03-13T08:54:11.492Z,5.60
2023-03-13T08:56:38.415Z,5.70
2023-03-13T08:59:06.625Z,5.70
2023-03-13T09:01:35.882Z,5.70
2023-03-13T09:04:04.975Z,5.70
2023-03-13T09:06:38.359Z,5.70
2023-03-13T09:09:08.077Z,5.80
2023-03-13T09:11:37.285Z,5.80
2023-03-13T09:14:04.166Z,5.80
2023-03-13T09:16:32.906Z,5.90
2023-03-13T09:19:01.092Z,5.90
2023-03-13T09:21:34.193Z,6.00
2023-03-13T09:24:02.029Z,6.00
2023-03-13T09:26:29.206Z,6.00
2023-03-13T09:28:56.523Z,6.10
2023-03-13T09:31:27.790Z,6.20
2023-03-13T09:33:55.060Z,6.20
2023-03-13T09:36:23.956Z,6.20
2023-03-13T09:38:57.596Z,6.30
2023-03-13T09:41:40.326Z,6.40
2023-03-13T09:44:23.222Z,6.40
2023-03-13T09:47:08.494Z,6.50
2023-03-13T09:49:42.823Z,6.60
2023-03-13T09:52:40.492Z,6.50
2023-03-13T09:55:22.384Z,6.60
2023-03-13T09:57:55.811Z,6.60
2023-03-13T10:00:31.838Z,6.60
2023-03-13T10:03:31.456Z,6.70
2023-03-13T10:06:24.698Z,6.70
2023-03-13T10:08:52.859Z,6.80
2023-03-13T10:11:44.572Z,6.80
2023-03-13T10:14:29.761Z,6.80
2023-03-13T10:17:07.268Z,6.90
2023-03-13T10:19:43.396Z,6.90
2023-03-13T10:22:22.789Z,7.00
2023-03-13T10:25:09.753Z,7.00
2023-03-13T10:27:51.138Z,7.00
2023-03-13T10:30:31.356Z,7.10
2023-03-13T10:33:12.125Z,7.20
2023-03-13T10:35:42.598Z,7.20
2023-03-13T10:38:20.463Z,7.30
2023-03-13T10:41:05.557Z,7.30
2023-03-13T10:43:32.465Z,7.40
2023-03-13T10:45:59.488Z,7.30
2023-03-13T10:48:35.827Z,7.40
2023-03-13T10:51:02.692Z,7.30
2023-03-13T10:53:29.465Z,7.40
2023-03-13T10:56:08.989Z,7.40
2023-03-13T10:58:51.749Z,7.40
2023-03-13T11:01:42.191Z,7.50
2023-03-13T11:04:39.004Z,7.50
2023-03-13T11:07:21.176Z,7.50
2023-03-13T11:10:19.253Z,7.50
2023-03-13T11:12:53.176Z,7.60
2023-03-13T11:15:41.443Z,7.50
2023-03-13T11:18:29.412Z,7.50
2023-03-13T11:21:08.717Z,7.50
2023-03-13T11:23:53.890Z,7.50
2023-03-13T11:27:03.859Z,7.50
2023-03-13T11:30:07.602Z,7.50
2023-03-13T11:32:52.336Z,7.50
2023-03-13T11:35:37.202Z,7.50
2023-03-13T11:38:20.160Z,7.50
2023-03-13T11:41:37.718Z,7.50
2023-03-13T11:44:22.773Z,7.50
2023-03-13T11:47:29.263Z,7.60
2023-03-13T11:50:07.622Z,7.50
2023-03-13T11:53:24.795Z,7.50
2023-03-13T11:56:13.913Z,7.60
2023-03-13T11:58:49.223Z,7.60
2023-03-13T12:01:27.262Z,7.70
2023-03-13T12:04:11.646Z,7.70
2023-03-13T12:06:52.165Z,7.80
2023-03-13T12:09:51.671Z,7.80
2023-03-13T12:12:59.926Z,7.90
2023-03-13T12:15:45.284Z,7.80
2023-03-13T12:18:34.359Z,7.90
2023-03-13T12:21:34.861Z,7.90
2023-03-13T12:24:12.721Z,7.80
2023-03-13T12:26:55.359Z,7.80
2023-03-13T12:29:41.982Z,7.90
2023-03-13T12:32:22.381Z,7.90
2023-03-13T12:35:12.659Z,7.90
2023-03-13T12:37:50.186Z,7.90
2023-03-13T12:40:34.112Z,7.90
2023-03-13T12:43:19.493Z,7.80
2023-03-13T12:45:57.063Z,7.80
2023-03-13T12:49:12.276Z,7.80
2023-03-13T12:52:02.498Z,7.90
2023-03-13T12:55:08.192Z,7.90
2023-03-13T12:58:10.664Z,7.80
2023-03-13T13:00:42.543Z,7.80
2023-03-13T13:03:45.069Z,7.80
2023-03-13T13:06:15.668Z,8.00
2023-03-13T13:08:54.664Z,7.90
2023-03-13T13:11:39.627Z,8.00
2023-03-13T13:14:18.256Z,8.00
2023-03-13T13:17:16.514Z,8.10
2023-03-13T13:19:46.055Z,8.20
2023-03-13T13:22:37.849Z,8.20
2023-03-13T13:25:10.616Z,8.20
2023-03-13T13:27:37.379Z,8.20
2023-03-13T13:30:30.399Z,8.20
2023-03-13T13:33:20.438Z,8.30
2023-03-13T13:36:10.619Z,8.30
2023-03-13T13:38:42.686Z,8.30
2023-03-13T13:41:09.567Z,8.30
2023-03-13T13:43:45.868Z,8.20
2023-03-13T13:46:33.219Z,8.30
2023-03-13T13:49:06.682Z,8.40
2023-03-13T13:51:42.155Z,8.40
2023-03-13T13:54:55.024Z,8.50
2023-03-13T13:57:29.926Z,8.40
2023-03-13T14:00:05.692Z,8.30
2023-03-13T14:02:52.187Z,8.40
2023-03-13T14:05:29.257Z,8.50
2023-03-13T14:08:17.464Z,8.50
2023-03-13T14:11:30.454Z,8.60
2023-03-13T14:14:21.672Z,8.60
2023-03-13T14:16:54.207Z,8.60
2023-03-13T14:19:42.113Z,8.50
2023-03-13T14:22:14.247Z,8.50
2023-03-13T14:24:41.279Z,8.60
2023-03-13T14:27:19.878Z,8.60
2023-03-13T14:30:11.066Z,8.80
2023-03-13T14:32:39.429Z,8.70
2023-03-13T14:35:09.378Z,8.80
2023-03-13T14:38:02.360Z,8.90
2023-03-13T14:40:33.016Z,8.90
2023-03-13T14:43:02.850Z,8.90
2023-03-13T14:45:35.599Z,8.90
2023-03-13T14:48:22.750Z,8.90
2023-03-13T14:51:12.548Z,8.90
2023-03-13T14:53:59.213Z,9.00
2023-03-13T14:56:38.234Z,9.00
2023-03-13T14:59:19.473Z,9.10
2023-03-13T15:01:46.886Z,9.10
2023-03-13T15:04:13.940Z,9.10
2023-03-13T15:06:41.031Z,9.10
2023-03-13T15:09:18.457Z,9.10
2023-03-13T15:11:59.268Z,9.20
2023-03-13T15:14:45.876Z,9.20
2023-03-13T15:17:23.695Z,9.20
2023-03-13T15:19:56.989Z,9.20
2023-03-13T15:22:33.305Z,9.20
2023-03-13T15:25:08.233Z,9.20
2023-03-13T15:27:36.052Z,9.20
2023-03-13T15:30:03.195Z,9.30
2023-03-13T15:32:35.898Z,9.30
2023-03-13T15:35:21.409Z,9.30
2023-03-13T15:37:48.290Z,9.30
2023-03-13T15:40:17.099Z,9.40
2023-03-13T15:42:44.138Z,9.40
2023-03-13T15:45:11.765Z,9.30
2023-03-13T15:47:38.620Z,9.40
2023-03-13T15:50:12.760Z,9.40
2023-03-13T15:52:40.069Z,9.50
2023-03-13T15:55:08.430Z,9.40
2023-03-13T15:57:40.987Z,9.40
2023-03-13T16:00:29.901Z,9.40
2023-03-13T16:02:56.798Z,9.40
2023-03-13T16:05:23.626Z,9.40
2023-03-13T16:07:50.451Z,9.40
2023-03-13T16:10:25.823Z,9.30
2023-03-13T16:12:55.948Z,9.40
2023-03-13T16:15:23.130Z,9.40
2023-03-13T16:17:50.369Z,9.40
2023-03-13T16:20:21.622Z,9.50
2023-03-13T16:22:48.589Z,9.50
2023-03-13T16:25:15.853Z,9.50
2023-03-13T16:27:43.464Z,9.60
2023-03-13T16:30:32.891Z,9.60
2023-03-13T16:33:00.474Z,9.70
2023-03-13T16:35:28.808Z,9.70
2023-03-13T16:37:57.946Z,9.70
2023-03-13T16:40:32.108Z,9.70
2023-03-13T16:42:59.284Z,9.70
2023-03-13T16:45:26.951Z,9.80
2023-03-13T16:47:54.081Z,9.80
2023-03-13T16:50:29.534Z,9.70
2023-03-13T16:52:56.507Z,9.80
2023-03-13T16:55:28.380Z,9.90
2023-03-13T16:58:01.851Z,9.80
2023-03-13T17:00:32.035Z,9.90
2023-03-13T17:02:59.552Z,9.90
2023-03-13T17:05:27.572Z,9.90
2023-03-13T17:07:54.930Z,9.90
2023-03-13T17:10:28.858Z,9.90
2023-03-13T17:12:56.370Z,9.90
2023-03-13T17:15:25.368Z,9.90
2023-03-13T17:17:54.062Z,10.00
2023-03-13T17:20:27.398Z,10.00
2023-03-13T17:22:57.993Z,10.00
2023-03-13T17:25:25.347Z,10.00
2023-03-13T17:27:52.335Z,10.10
2023-03-13T17:30:30.066Z,10.10
2023-03-13T17:32:58.997Z,10.10
2023-03-13T17:35:25.986Z,10.10
2023-03-13T17:37:53.162Z,10.10
2023-03-13T17:40:28.524Z,10.00
2023-03-13T17:42:56.353Z,10.00
2023-03-13T17:45:24.115Z,10.10
2023-03-13T17:47:54.542Z,10.10
2023-03-13T17:50:27.342Z,10.10
2023-03-13T17:52:55.029Z,10.10
2023-03-13T17:55:22.650Z,10.10
2023-03-13T17:57:49.726Z,10.10
2023-03-13T18:00:25.572Z,10.10
2023-03-13T18:02:52.475Z,10.10
2023-03-13T18:05:19.448Z,10.10
2023-03-13T18:07:48.468Z,10.20
2023-03-13T18:10:28.119Z,10.20
2023-03-13T18:12:55.282Z,10.20
2023-03-13T18:15:25.494Z,10.20
2023-03-13T18:17:52.991Z,10.20
2023-03-13T18:20:25.416Z,10.20
2023-03-13T18:22:52.578Z,10.20
2023-03-13T18:25:19.688Z,10.20
2023-03-13T18:27:46.506Z,10.20
2023-03-13T18:30:23.412Z,10.20
2023-03-13T18:32:50.611Z,10.30
2023-03-13T18:35:18.268Z,10.30
2023-03-13T18:37:47.587Z,10.20
2023-03-13T18:40:20.851Z,10.20
2023-03-13T18:42:47.773Z,10.20
2023-03-13T18:45:29.260Z,10.30
2023-03-13T18:47:56.623Z,10.20
2023-03-13T18:50:31.617Z,10.30
2023-03-13T18:53:00.305Z,10.30
2023-03-13T18:55:30.882Z,10.30
2023-03-13T18:57:57.968Z,10.30
2023-03-13T19:00:30.886Z,10.30
2023-03-13T19:02:57.793Z,10.40
2023-03-13T19:05:24.950Z,10.30
2023-03-13T19:07:51.899Z,10.30
2023-03-13T19:10:24.764Z,10.40
2023-03-13T19:12:53.806Z,10.40
2023-03-13T19:15:24.332Z,10.40
2023-03-13T19:17:52.841Z,10.40
2023-03-13T19:20:27.700Z,10.40
2023-03-13T19:22:56.253Z,10.40
2023-03-13T19:25:23.626Z,10.40
2023-03-13T19:27:52.497Z,10.40
2023-03-13T19:30:23.240Z,10.40
2023-03-13T19:32:50.695Z,10.40
2023-03-13T19:35:21.039Z,10.40
2023-03-13T19:37:48.446Z,10.40
2023-03-13T19:40:28.661Z,10.40
2023-03-13T19:42:55.564Z,10.40
2023-03-13T19:45:22.460Z,10.40
2023-03-13T19:47:50.331Z,10.40
2023-03-13T19:50:29.872Z,10.40
2023-03-13T19:52:57.007Z,10.40
2023-03-13T19:55:24.118Z,10.40
2023-03-13T19:57:54.078Z,10.40
2023-03-13T20:00:24.923Z,10.40
2023-03-13T20:02:57.657Z,10.40
2023-03-13T20:05:28.805Z,10.40
2023-03-13T20:07:55.809Z,10.40
2023-03-13T20:10:23.095Z,10.40
2023-03-13T20:12:49.956Z,10.40
2023-03-13T20:15:17.447Z,10.40
2023-03-13T20:17:44.593Z,10.50
2023-03-13T20:20:15.935Z,10.50
2023-03-13T20:22:43.685Z,10.40
2023-03-13T20:25:11.046Z,10.40
2023-03-13T20:27:39.123Z,10.40
2023-03-13T20:30:07.204Z,10.40
2023-03-13T20:32:34.249Z,10.40
2023-03-13T20:35:02.350Z,10.40
2023-03-13T20:37:29.282Z,10.40
2023-03-13T20:39:56.266Z,10.50
2023-03-13T20:42:23.310Z,10.50
2023-03-13T20:44:50.183Z,10.50
2023-03-13T20:47:17.452Z,10.50
2023-03-13T20:49:44.309Z,10.50
2023-03-13T20:52:11.186Z,10.50
2023-03-13T20:54:38.899Z,10.60
2023-03-13T20:57:06.193Z,10.50
2023-03-13T20:59:33.100Z,10.50
2023-03-13T21:02:00.114Z,10.50
2023-03-13T21:04:27.062Z,10.60
2023-03-13T21:06:54.233Z,10.50
2023-03-13T21:09:21.488Z,10.50
2023-03-13T21:11:48.543Z,10.60
2023-03-13T21:14:15.484Z,10.60
2023-03-13T21:16:42.372Z,10.60
2023-03-13T21:19:09.276Z,10.60
2023-03-13T21:21:36.170Z,10.60
2023-03-13T21:24:03.030Z,10.60
2023-03-13T21:26:30.371Z,10.60
2023-03-13T21:28:57.456Z,10.60
2023-03-13T21:31:25.069Z,10.60
2023-03-13T21:33:52.262Z,10.60
2023-03-13T21:36:21.202Z,10.60
2023-03-13T21:38:50.300Z,10.60
2023-03-13T21:41:20.869Z,10.70
2023-03-13T21:43:48.088Z,10.60
2023-03-13T21:46:17.946Z,10.60
2023-03-13T21:51:18.063Z,10.60
2023-03-13T21:53:46.600Z,10.50
2023-03-13T21:56:15.536Z,10.60
2023-03-13T21:58:45.599Z,10.60
2023-03-13T22:01:14.794Z,10.60
2023-03-13T22:03:42.242Z,10.60
2023-03-13T22:06:20.869Z,10.60
2023-03-13T22:08:51.130Z,10.60
2023-03-13T22:11:18.872Z,10.60
2023-03-13T22:13:45.828Z,10.60
2023-03-13T22:16:12.776Z,10.60
2023-03-13T22:18:41.793Z,10.60
2023-03-13T22:21:08.910Z,10.70
2023-03-13T22:23:35.777Z,10.70
2023-03-13T22:26:03.377Z,10.70
2023-03-13T22:28:30.341Z,10.70
2023-03-13T22:31:01.672Z,10.70
2023-03-13T22:33:28.538Z,10.70
2023-03-13T22:35:55.550Z,10.70
2023-03-13T22:38:22.683Z,10.70
2023-03-13T22:41:05.136Z,10.70
2023-03-13T22:43:32.313Z,10.70
2023-03-13T22:45:59.667Z,10.80
2023-03-13T22:48:28.147Z,10.80
2023-03-13T22:51:08.956Z,10.70
2023-03-13T22:53:39.185Z,10.80
2023-03-13T22:56:09.884Z,10.80
2023-03-13T22:58:37.423Z,10.80
2023-03-13T23:01:16.757Z,10.80
2023-03-13T23:03:45.133Z,10.80
2023-03-13T23:06:22.406Z,10.90
2023-03-13T23:08:52.466Z,10.90
2023-03-13T23:11:20.603Z,10.80
2023-03-13T23:13:47.559Z,10.90
2023-03-13T23:16:14.932Z,10.90
2023-03-13T23:18:42.635Z,10.90
2023-03-13T23:21:14.307Z,11.00
2023-03-13T23:23:42.109Z,11.00
2023-03-13T23:26:14.317Z,11.00
2023-03-13T23:28:41.637Z,11.00
2023-03-13T23:31:21.240Z,10.90
2023-03-13T23:33:49.315Z,10.90
2023-03-13T23:36:19.613Z,10.90
2023-03-13T23:38:52.290Z,10.90
2023-03-13T23:41:20.796Z,10.90
2023-03-13T23:43:47.916Z,10.90
2023-03-13T23:46:20.858Z,11.00
2023-03-13T23:48:47.861Z,11.00
2023-03-13T23:51:14.749Z,11.00
2023-03-13T23:53:43.246Z,11.00
2023-03-13T23:56:11.408Z,10.90
2023-03-13T23:58:38.677Z,11.00
